createdAt,value
2023-06-01T00:00:40.574Z,84.31
2023-06-01T00:01:41.018Z,84.96
2023-06-01T00:02:40.996Z,85.27
2023-06-01T00:03:40.568Z,85.47
2023-06-01T00:04:40.626Z,85.53
2023-06-01T00:05:40.509Z,85.63
2023-06-01T00:06:41.338Z,85.43
2023-06-01T00:07:40.501Z,85.74
2023-06-01T00:08:40.500Z,86.04
2023-06-01T00:09:40.480Z,85.63
2023-06-01T00:10:40.469Z,85.02
2023-06-01T00:11:40.799Z,84.27
2023-06-01T00:12:40.462Z,84.06
2023-06-01T00:13:40.434Z,84.37
2023-06-01T00:14:40.441Z,84.06
2023-06-01T00:15:40.799Z,84.17
2023-06-01T00:16:40.461Z,84.12
2023-06-01T00:17:40.410Z,83.42
2023-06-01T00:18:40.405Z,83.21
2023-06-01T00:19:40.390Z,83.31
2023-06-01T00:20:40.408Z,83.62
2023-06-01T00:21:40.451Z,83.92
2023-06-01T00:22:40.439Z,84.12
2023-06-01T00:23:40.353Z,84.12
2023-06-01T00:24:40.335Z,83.86
2023-06-01T00:25:40.650Z,83.86
2023-06-01T00:26:40.320Z,84.17
2023-06-01T00:27:40.323Z,84.37
2023-06-01T00:28:40.304Z,84.17
2023-06-01T00:29:40.317Z,84.27
2023-06-01T00:30:40.600Z,84.51
2023-06-01T00:31:40.361Z,84.51
2023-06-01T00:32:40.303Z,84.37
2023-06-01T00:33:40.250Z,84.17
2023-06-01T00:34:40.575Z,84.27
2023-06-01T00:35:40.254Z,83.96
2023-06-01T00:36:40.228Z,83.86
2023-06-01T00:37:40.215Z,84.11
2023-06-01T00:38:40.220Z,83.90
2023-06-01T00:39:40.717Z,84.06
2023-06-01T00:40:40.189Z,83.56
2023-06-01T00:41:40.187Z,83.65
2023-06-01T00:42:40.161Z,83.76
2023-06-01T00:43:40.492Z,83.96
2023-06-01T00:44:40.148Z,83.70
2023-06-01T00:45:40.139Z,83.76
2023-06-01T00:46:40.170Z,83.76
2023-06-01T00:47:40.160Z,83.86
2023-06-01T00:48:40.536Z,83.76
2023-06-01T00:49:40.106Z,83.65
2023-06-01T00:50:40.092Z,83.65
2023-06-01T00:51:40.090Z,83.65
2023-06-01T00:52:40.796Z,83.65
2023-06-01T00:53:40.410Z,83.70
2023-06-01T00:54:40.058Z,83.35
2023-06-01T00:55:40.054Z,83.65
2023-06-01T00:56:40.038Z,83.70
2023-06-01T00:57:40.337Z,83.90
2023-06-01T00:58:40.029Z,84.51
2023-06-01T00:59:40.016Z,84.61
2023-06-01T01:00:40.002Z,84.92
2023-06-01T01:01:40.137Z,85.02
2023-06-01T01:02:40.362Z,85.13
2023-06-01T01:03:39.981Z,85.02
2023-06-01T01:04:39.994Z,85.43
2023-06-01T01:05:39.965Z,85.63
2023-06-01T01:06:40.285Z,85.63
2023-06-01T01:07:40.335Z,85.98
2023-06-01T01:08:39.929Z,85.68
2023-06-01T01:09:39.931Z,85.77
2023-06-01T01:10:39.913Z,85.68
2023-06-01T01:11:40.735Z,85.57
2023-06-01T01:12:39.916Z,86.08
2023-06-01T01:13:39.898Z,85.77
2023-06-01T01:14:39.882Z,85.98
2023-06-01T01:15:39.880Z,86.33
2023-06-01T01:16:40.145Z,86.53
2023-06-01T01:17:40.054Z,86.43
2023-06-01T01:18:39.844Z,86.63
2023-06-01T01:19:39.844Z,86.83
2023-06-01T01:20:40.569Z,87.18
2023-06-01T01:21:40.270Z,87.38
2023-06-01T01:22:39.844Z,87.79
2023-06-01T01:23:39.822Z,88.00
2023-06-01T01:24:39.797Z,88.20
2023-06-01T01:25:40.208Z,88.45
2023-06-01T01:26:39.777Z,88.41
2023-06-01T01:27:39.775Z,88.24
2023-06-01T01:28:39.763Z,88.35
2023-06-01T01:29:40.102Z,88.24
2023-06-01T01:30:40.603Z,88.14
2023-06-01T01:31:39.831Z,88.55
2023-06-01T01:32:39.761Z,88.96
2023-06-01T01:33:39.726Z,89.41
2023-06-01T01:34:40.099Z,89.72
2023-06-01T01:35:39.709Z,89.41
2023-06-01T01:36:39.704Z,89.82
2023-06-01T01:37:39.682Z,89.51
2023-06-01T01:38:39.679Z,89.72
2023-06-01T01:39:40.034Z,90.02
2023-06-01T01:40:39.658Z,90.02
2023-06-01T01:41:39.655Z,90.12
2023-06-01T01:42:39.639Z,90.02
2023-06-01T01:43:39.934Z,90.02
2023-06-01T01:44:40.061Z,89.82
2023-06-01T01:45:39.625Z,89.61
2023-06-01T01:46:39.655Z,89.72
2023-06-01T01:47:39.759Z,89.86
2023-06-01T01:48:40.069Z,90.17
2023-06-01T01:49:39.594Z,90.47
2023-06-01T01:50:39.573Z,90.58
2023-06-01T01:51:39.569Z,90.68
2023-06-01T01:52:39.550Z,90.72
2023-06-01T01:53:39.936Z,91.33
2023-06-01T01:54:39.539Z,91.85
2023-06-01T01:55:39.531Z,92.66
2023-06-01T01:56:39.517Z,92.77
2023-06-01T01:57:39.904Z,93.07
2023-06-01T01:58:39.865Z,93.38
2023-06-01T01:59:39.502Z,93.69
2023-06-01T02:00:39.484Z,93.79
2023-06-01T02:01:39.526Z,93.79
2023-06-01T02:02:39.812Z,93.65
2023-06-01T02:03:39.555Z,93.85
2023-06-01T02:04:39.446Z,93.33
2023-06-01T02:05:39.442Z,92.78
2023-06-01T02:06:39.441Z,92.58
2023-06-01T02:07:40.092Z,92.17
2023-06-01T02:08:39.426Z,91.76
2023-06-01T02:09:39.405Z,91.41
2023-06-01T02:10:39.395Z,91.20
2023-06-01T02:11:40.320Z,91.11
2023-06-01T02:12:39.712Z,91.20
2023-06-01T02:13:39.365Z,91.20
2023-06-01T02:14:39.358Z,90.84
2023-06-01T02:15:39.355Z,90.94
2023-06-01T02:16:39.746Z,90.70
2023-06-01T02:17:39.338Z,90.64
2023-06-01T02:18:39.319Z,90.84
2023-06-01T02:19:39.305Z,90.94
2023-06-01T02:20:39.303Z,90.64
2023-06-01T02:21:40.093Z,90.64
2023-06-01T02:22:39.280Z,90.84
2023-06-01T02:23:39.269Z,90.84
2023-06-01T02:24:39.267Z,90.84
2023-06-01T02:25:39.697Z,91.05
2023-06-01T02:26:39.594Z,91.05
2023-06-01T02:27:39.252Z,91.25
2023-06-01T02:28:39.178Z,91.46
2023-06-01T02:29:39.216Z,91.35
2023-06-01T02:30:40.111Z,91.46
2023-06-01T02:31:39.177Z,91.25
2023-06-01T02:32:39.165Z,91.25
2023-06-01T02:33:39.129Z,91.46
2023-06-01T02:34:39.130Z,91.25
2023-06-01T02:35:39.822Z,91.25
2023-06-01T02:36:39.113Z,91.46
2023-06-01T02:37:39.102Z,91.15
2023-06-01T02:38:39.097Z,91.29
2023-06-01T02:39:39.352Z,91.29
2023-06-01T02:40:39.893Z,91.50
2023-06-01T02:41:39.070Z,91.50
2023-06-01T02:42:39.049Z,91.80
2023-06-01T02:43:39.046Z,91.80
2023-06-01T02:44:39.380Z,91.80
2023-06-01T02:45:39.042Z,91.80
2023-06-01T02:46:39.035Z,91.91
2023-06-01T02:47:39.010Z,91.70
2023-06-01T02:48:38.999Z,91.80
2023-06-01T02:49:39.519Z,92.01
2023-06-01T02:50:38.982Z,92.01
2023-06-01T02:51:38.968Z,92.32
2023-06-01T02:52:38.965Z,92.21
2023-06-01T02:53:39.725Z,92.21
2023-06-01T02:54:39.348Z,92.36
2023-06-01T02:55:38.931Z,92.77
2023-06-01T02:56:38.924Z,92.66
2023-06-01T02:57:38.911Z,92.32
2023-06-01T02:58:39.239Z,92.56
2023-06-01T02:59:38.890Z,92.77
2023-06-01T03:00:38.889Z,92.87
2023-06-01T03:01:38.914Z,92.97
2023-06-01T03:02:38.887Z,92.93
2023-06-01T03:03:39.232Z,92.83
2023-06-01T03:04:38.855Z,93.18
2023-06-01T03:05:38.837Z,93.03
2023-06-01T03:06:39.140Z,93.07
2023-06-01T03:07:39.144Z,93.33
2023-06-01T03:08:39.185Z,93.24
2023-06-01T03:09:38.801Z,93.44
2023-06-01T03:10:38.820Z,93.44
2023-06-01T03:11:38.782Z,93.54
2023-06-01T03:12:39.117Z,93.59
2023-06-01T03:13:38.768Z,93.65
2023-06-01T03:14:38.764Z,93.65
2023-06-01T03:15:38.791Z,93.85
2023-06-01T03:16:38.759Z,93.85
2023-06-01T03:17:39.114Z,93.74
2023-06-01T03:18:39.368Z,93.74
2023-06-01T03:19:38.722Z,93.65
2023-06-01T03:20:38.721Z,93.54
2023-06-01T03:21:38.893Z,93.44
2023-06-01T03:22:39.028Z,93.33
2023-06-01T03:23:38.738Z,93.13
2023-06-01T03:24:38.714Z,93.03
2023-06-01T03:25:38.662Z,93.03
2023-06-01T03:26:39.148Z,93.74
2023-06-01T03:27:38.654Z,93.95
2023-06-01T03:28:38.639Z,93.85
2023-06-01T03:29:38.619Z,93.54
2023-06-01T03:30:38.614Z,93.74
2023-06-01T03:31:38.992Z,93.65
2023-06-01T03:32:38.657Z,93.44
2023-06-01T03:33:38.583Z,93.44
2023-06-01T03:34:38.578Z,93.54
2023-06-01T03:35:38.839Z,93.54
2023-06-01T03:36:38.872Z,93.29
2023-06-01T03:37:38.542Z,93.65
2023-06-01T03:38:38.543Z,93.54
2023-06-01T03:39:38.522Z,93.85
2023-06-01T03:40:38.998Z,93.85
2023-06-01T03:41:38.513Z,93.85
2023-06-01T03:42:38.501Z,93.95
2023-06-01T03:43:38.497Z,93.95
2023-06-01T03:44:38.483Z,94.06
2023-06-01T03:45:38.971Z,93.95
2023-06-01T03:46:38.494Z,93.95
2023-06-01T03:47:38.528Z,94.06
2023-06-01T03:48:38.458Z,94.15
2023-06-01T03:49:38.957Z,94.26
2023-06-01T03:50:38.798Z,94.15
2023-06-01T03:51:38.436Z,94.15
2023-06-01T03:52:38.449Z,94.30
2023-06-01T03:53:38.400Z,94.36
2023-06-01T03:54:38.750Z,94.46
2023-06-01T03:55:38.380Z,94.51
2023-06-01T03:56:38.379Z,94.67
2023-06-01T03:57:38.366Z,94.60
2023-06-01T03:58:38.357Z,94.60
2023-06-01T03:59:38.355Z,94.46
2023-06-01T04:00:38.345Z,94.46
2023-06-01T04:01:40.240Z,94.36
2023-06-01T04:02:38.407Z,94.36
2023-06-01T04:03:38.838Z,94.26
2023-06-01T04:04:38.818Z,94.46
2023-06-01T04:05:38.305Z,94.46
2023-06-01T04:06:38.300Z,94.26
2023-06-01T04:07:38.276Z,94.26
2023-06-01T04:08:38.298Z,94.26
2023-06-01T04:09:38.251Z,94.36
2023-06-01T04:10:38.252Z,94.15
2023-06-01T04:11:38.241Z,94.06
2023-06-01T04:12:38.234Z,94.06
2023-06-01T04:13:38.563Z,94.06
2023-06-01T04:14:38.216Z,94.26
2023-06-01T04:15:38.198Z,94.26
2023-06-01T04:16:38.222Z,93.91
2023-06-01T04:17:38.258Z,93.80
2023-06-01T04:18:38.191Z,93.74
2023-06-01T04:19:38.162Z,93.60
2023-06-01T04:20:38.161Z,93.50
2023-06-01T04:21:38.211Z,93.09
2023-06-01T04:22:38.162Z,92.99
2023-06-01T04:23:38.136Z,93.19
2023-06-01T04:24:38.129Z,92.88
2023-06-01T04:25:38.113Z,92.99
2023-06-01T04:26:38.107Z,92.64
2023-06-01T04:27:38.112Z,92.43
2023-06-01T04:28:38.092Z,92.54
2023-06-01T04:29:38.113Z,92.43
2023-06-01T04:30:38.068Z,92.54
2023-06-01T04:31:38.432Z,92.54
2023-06-01T04:32:38.400Z,92.23
2023-06-01T04:33:38.039Z,92.23
2023-06-01T04:34:38.032Z,92.33
2023-06-01T04:35:38.031Z,92.54
2023-06-01T04:36:38.062Z,92.68
2023-06-01T04:37:37.994Z,92.78
2023-06-01T04:38:37.993Z,93.19
2023-06-01T04:39:37.974Z,93.40
2023-06-01T04:40:37.993Z,93.70
2023-06-01T04:41:38.312Z,93.50
2023-06-01T04:42:37.959Z,93.60
2023-06-01T04:43:37.950Z,93.45
2023-06-01T04:44:37.944Z,93.35
2023-06-01T04:45:37.958Z,93.05
2023-06-01T04:46:38.183Z,93.00
2023-06-01T04:47:37.932Z,92.08
2023-06-01T04:48:37.901Z,92.23
2023-06-01T04:49:37.893Z,91.88
2023-06-01T04:50:38.631Z,92.29
2023-06-01T04:51:37.942Z,92.23
2023-06-01T04:52:38.411Z,92.33
2023-06-01T04:53:37.852Z,92.54
2023-06-01T04:54:37.869Z,92.74
2023-06-01T04:55:37.871Z,92.23
2023-06-01T04:56:37.846Z,93.25
2023-06-01T04:57:37.839Z,93.05
2023-06-01T04:58:37.817Z,93.05
2023-06-01T04:59:38.150Z,92.64
2023-06-01T05:00:37.804Z,92.94
2023-06-01T05:01:37.815Z,93.25
2023-06-01T05:02:37.805Z,93.45
2023-06-01T05:03:37.801Z,93.00
2023-06-01T05:04:38.103Z,92.19
2023-06-01T05:05:39.319Z,92.02
2023-06-01T05:06:37.755Z,93.40
2023-06-01T05:07:37.730Z,93.60
2023-06-01T05:08:37.790Z,93.80
2023-06-01T05:09:38.035Z,94.01
2023-06-01T05:10:37.719Z,94.21
2023-06-01T05:11:37.700Z,94.11
2023-06-01T05:12:37.700Z,94.52
2023-06-01T05:13:37.829Z,94.21
2023-06-01T05:14:37.685Z,94.42
2023-06-01T05:15:37.663Z,94.26
2023-06-01T05:16:37.790Z,94.56
2023-06-01T05:17:37.663Z,94.77
2023-06-01T05:18:37.673Z,95.07
2023-06-01T05:19:37.632Z,95.28
2023-06-01T05:20:37.630Z,95.73
2023-06-01T05:21:37.668Z,96.25
2023-06-01T05:22:37.941Z,96.34
2023-06-01T05:23:38.098Z,96.75
2023-06-01T05:24:37.599Z,96.66
2023-06-01T05:25:37.581Z,96.75
2023-06-01T05:26:37.591Z,96.75
2023-06-01T05:27:37.580Z,96.30
2023-06-01T05:28:37.578Z,96.10
2023-06-01T05:29:37.541Z,95.84
2023-06-01T05:30:37.549Z,95.94
2023-06-01T05:31:37.592Z,96.04
2023-06-01T05:32:37.924Z,96.55
2023-06-01T05:33:37.513Z,97.11
2023-06-01T05:34:37.510Z,97.16
2023-06-01T05:35:37.497Z,97.00
2023-06-01T05:36:37.676Z,96.86
2023-06-01T05:37:37.494Z,97.00
2023-06-01T05:38:37.469Z,97.72
2023-06-01T05:39:37.452Z,97.92
2023-06-01T05:40:37.455Z,97.72
2023-06-01T05:41:38.117Z,97.82
2023-06-01T05:42:37.428Z,97.78
2023-06-01T05:43:37.415Z,96.96
2023-06-01T05:44:37.415Z,96.96
2023-06-01T05:45:37.451Z,96.86
2023-06-01T05:46:37.430Z,96.86
2023-06-01T05:47:37.436Z,96.45
2023-06-01T05:48:39.274Z,96.34
2023-06-01T05:49:37.370Z,96.25
2023-06-01T05:50:37.373Z,96.14
2023-06-01T05:51:38.066Z,96.30
2023-06-01T05:52:37.338Z,95.59
2023-06-01T05:53:37.325Z,95.79
2023-06-01T05:54:37.320Z,95.59
2023-06-01T05:55:37.850Z,95.89
2023-06-01T05:56:37.299Z,95.54
2023-06-01T05:57:37.285Z,95.18
2023-06-01T05:58:37.285Z,95.48
2023-06-01T05:59:37.268Z,95.44
2023-06-01T06:00:37.613Z,95.34
2023-06-01T06:01:37.464Z,95.44
2023-06-01T06:02:37.306Z,95.54
2023-06-01T06:03:37.313Z,94.73
2023-06-01T06:04:38.100Z,94.93
2023-06-01T06:05:37.225Z,95.54
2023-06-01T06:06:37.251Z,95.23
2023-06-01T06:07:37.543Z,95.54
2023-06-01T06:08:37.209Z,95.44
2023-06-01T06:09:37.498Z,95.09
2023-06-01T06:10:37.194Z,94.68
2023-06-01T06:11:37.166Z,94.89
2023-06-01T06:12:37.169Z,94.43
2023-06-01T06:13:37.859Z,92.90
2023-06-01T06:14:37.649Z,91.47
2023-06-01T06:15:37.147Z,91.88
2023-06-01T06:16:37.138Z,92.33
2023-06-01T06:17:37.189Z,92.02
2023-06-01T06:18:37.457Z,92.68
2023-06-01T06:19:37.104Z,93.35
2023-06-01T06:20:37.103Z,93.29
2023-06-01T06:21:37.188Z,93.70
2023-06-01T06:22:37.086Z,94.01
2023-06-01T06:23:37.912Z,93.91
2023-06-01T06:24:37.070Z,93.60
2023-06-01T06:25:37.077Z,94.01
2023-06-01T06:26:37.054Z,93.70
2023-06-01T06:27:37.500Z,94.26
2023-06-01T06:28:37.426Z,93.91
2023-06-01T06:29:37.033Z,94.32
2023-06-01T06:30:37.014Z,94.11
2023-06-01T06:31:37.054Z,94.32
2023-06-01T06:32:37.816Z,94.21
2023-06-01T06:33:36.988Z,94.21
2023-06-01T06:34:36.977Z,93.80
2023-06-01T06:35:36.974Z,94.21
2023-06-01T06:36:36.964Z,94.21
2023-06-01T06:37:37.251Z,93.91
2023-06-01T06:38:36.943Z,94.11
2023-06-01T06:39:36.942Z,93.70
2023-06-01T06:40:36.924Z,93.09
2023-06-01T06:41:37.288Z,92.99
2023-06-01T06:42:37.598Z,93.09
2023-06-01T06:43:36.902Z,93.33
2023-06-01T06:44:36.900Z,93.74
2023-06-01T06:45:36.887Z,93.74
2023-06-01T06:46:37.245Z,93.44
2023-06-01T06:47:36.896Z,92.78
2023-06-01T06:48:36.851Z,92.99
2023-06-01T06:49:36.874Z,92.47
2023-06-01T06:50:36.841Z,92.23
2023-06-01T06:51:37.624Z,90.90
2023-06-01T06:52:36.836Z,91.20
2023-06-01T06:53:36.820Z,91.00
2023-06-01T06:54:36.813Z,90.70
2023-06-01T06:55:37.149Z,91.11
2023-06-01T06:56:37.163Z,91.11
2023-06-01T06:57:36.779Z,90.84
2023-06-01T06:58:36.776Z,91.46
2023-06-01T06:59:36.790Z,91.31
2023-06-01T07:00:37.139Z,90.39
2023-06-01T07:01:38.688Z,90.19
2023-06-01T07:02:36.801Z,89.32
2023-06-01T07:03:36.800Z,89.73
2023-06-01T07:04:36.723Z,88.82
2023-06-01T07:05:37.461Z,88.41
2023-06-01T07:06:36.705Z,88.61
2023-06-01T07:07:36.707Z,88.24
2023-06-01T07:08:36.683Z,88.70
2023-06-01T07:09:37.151Z,88.59
2023-06-01T07:10:37.029Z,89.31
2023-06-01T07:11:36.662Z,89.20
2023-06-01T07:12:36.659Z,89.61
2023-06-01T07:13:36.650Z,89.88
2023-06-01T07:14:36.999Z,88.82
2023-06-01T07:15:36.632Z,87.49
2023-06-01T07:16:36.674Z,88.10
2023-06-01T07:17:36.642Z,87.59
2023-06-01T07:18:36.600Z,87.70
2023-06-01T07:19:36.875Z,88.51
2023-06-01T07:20:36.577Z,87.24
2023-06-01T07:21:36.595Z,86.83
2023-06-01T07:22:36.568Z,86.33
2023-06-01T07:23:36.596Z,86.63
2023-06-01T07:24:36.893Z,86.94
2023-06-01T07:25:36.555Z,85.16
2023-06-01T07:26:36.527Z,85.33
2023-06-01T07:27:36.529Z,84.31
2023-06-01T07:28:36.854Z,83.76
2023-06-01T07:29:36.526Z,82.74
2023-06-01T07:30:36.520Z,83.45
2023-06-01T07:31:36.695Z,82.94
2023-06-01T07:32:36.673Z,82.13
2023-06-01T07:33:37.352Z,83.45
2023-06-01T07:34:36.464Z,83.25
2023-06-01T07:35:36.467Z,81.01
2023-06-01T07:36:36.448Z,81.48
2023-06-01T07:37:36.733Z,78.35
2023-06-01T07:38:36.438Z,78.89
2023-06-01T07:39:36.439Z,80.05
2023-06-01T07:40:36.406Z,80.26
2023-06-01T07:41:36.398Z,80.77
2023-06-01T07:42:37.148Z,80.26
2023-06-01T07:43:36.381Z,81.17
2023-06-01T07:44:36.363Z,80.87
2023-06-01T07:45:36.370Z,79.85
2023-06-01T07:46:36.367Z,79.03
2023-06-01T07:47:36.411Z,79.54
2023-06-01T07:48:36.328Z,80.05
2023-06-01T07:49:36.334Z,80.36
2023-06-01T07:50:36.307Z,78.73
2023-06-01T07:51:37.096Z,79.54
2023-06-01T07:52:37.004Z,78.73
2023-06-01T07:53:36.299Z,79.71
2023-06-01T07:54:36.306Z,78.96
2023-06-01T07:55:36.262Z,77.84
2023-06-01T07:56:36.302Z,78.59
2023-06-01T07:57:36.244Z,78.55
2023-06-01T07:58:36.238Z,78.66
2023-06-01T07:59:36.229Z,78.66
2023-06-01T08:00:36.211Z,78.05
2023-06-01T08:01:36.653Z,77.23
2023-06-01T08:02:36.278Z,76.18
2023-06-01T08:03:36.272Z,77.20
2023-06-01T08:04:36.163Z,75.63
2023-06-01T08:05:38.686Z,74.38
2023-06-01T08:06:36.168Z,74.28
2023-06-01T08:07:36.132Z,71.16
2023-06-01T08:08:36.122Z,70.01
2023-06-01T08:09:36.124Z,70.72
2023-06-01T08:10:36.517Z,70.59
2023-06-01T08:11:36.093Z,70.05
2023-06-01T08:12:36.091Z,69.95
2023-06-01T08:13:36.071Z,69.47
2023-06-01T08:14:36.049Z,69.41
2023-06-01T08:15:36.410Z,67.49
2023-06-01T08:16:36.060Z,67.85
2023-06-01T08:17:36.169Z,67.51
2023-06-01T08:18:36.015Z,70.25
2023-06-01T08:19:36.396Z,70.45
2023-06-01T08:20:36.899Z,70.18
2023-06-01T08:21:36.012Z,68.15
2023-06-01T08:22:35.981Z,69.64
2023-06-01T08:23:35.973Z,67.29
2023-06-01T08:24:36.358Z,66.44
2023-06-01T08:25:35.953Z,65.50
2023-06-01T08:26:35.936Z,64.13
2023-06-01T08:27:35.930Z,62.62
2023-06-01T08:28:35.921Z,65.04
2023-06-01T08:30:35.912Z,63.68
2023-06-01T08:31:35.938Z,63.32
2023-06-01T08:32:35.906Z,62.92
2023-06-01T08:33:36.204Z,64.30
2023-06-01T08:34:36.197Z,61.37
2023-06-01T08:35:35.843Z,63.55
2023-06-01T08:36:35.812Z,64.90
2023-06-01T08:37:35.804Z,64.79
2023-06-01T08:38:35.816Z,66.99
2023-06-01T08:39:35.790Z,63.05
2023-06-01T08:40:35.762Z,64.12
2023-06-01T08:41:35.758Z,66.85
2023-06-01T08:42:35.742Z,65.84
2023-06-01T08:43:36.419Z,65.84
2023-06-01T08:44:35.719Z,64.46
2023-06-01T08:45:35.726Z,65.64
2023-06-01T08:46:35.758Z,63.12
2023-06-01T08:47:36.084Z,63.52
2023-06-01T08:48:36.021Z,64.56
2023-06-01T08:49:35.685Z,63.15
2023-06-01T08:50:35.650Z,63.28
2023-06-01T08:51:35.649Z,64.16
2023-06-01T08:52:36.533Z,64.87
2023-06-01T08:53:35.630Z,63.76
2023-06-01T08:54:35.611Z,64.19
2023-06-01T08:55:35.598Z,64.96
2023-06-01T08:56:35.583Z,66.14
2023-06-01T08:57:35.800Z,66.75
2023-06-01T08:58:35.563Z,66.75
2023-06-01T08:59:35.551Z,64.87
2023-06-01T09:00:35.540Z,64.84
2023-06-01T09:01:35.596Z,61.40
2023-06-01T09:02:36.289Z,63.76
2023-06-01T09:03:35.533Z,63.28
2023-06-01T09:04:35.496Z,63.62
2023-06-01T09:05:35.484Z,63.19
2023-06-01T09:06:35.783Z,62.01
2023-06-01T09:07:35.781Z,62.85
2023-06-01T09:08:35.511Z,64.13
2023-06-01T09:09:35.557Z,63.59
2023-06-01T09:10:35.426Z,62.96
2023-06-01T09:11:35.792Z,62.59
2023-06-01T09:12:35.404Z,60.94
2023-06-01T09:13:35.427Z,62.40
2023-06-01T09:14:35.381Z,60.51
2023-06-01T09:15:35.378Z,59.83
2023-06-01T09:16:35.727Z,61.24
2023-06-01T09:17:35.409Z,61.55
2023-06-01T09:18:35.342Z,61.95
2023-06-01T09:19:35.335Z,61.72
2023-06-01T09:20:36.185Z,59.75
2023-06-01T09:21:35.354Z,58.61
2023-06-01T09:22:35.301Z,59.24
2023-06-01T09:23:35.296Z,59.67
2023-06-01T09:24:35.610Z,59.63
2023-06-01T09:25:35.690Z,60.53
2023-06-01T09:26:35.253Z,61.01
2023-06-01T09:27:35.246Z,59.37
2023-06-01T09:28:35.233Z,60.75
2023-06-01T09:29:35.238Z,58.21
2023-06-01T09:30:35.689Z,57.65
2023-06-01T09:31:35.254Z,61.11
2023-06-01T09:32:35.201Z,61.05
2023-06-01T09:33:35.178Z,59.28
2023-06-01T09:34:35.851Z,57.35
2023-06-01T09:35:35.867Z,57.98
2023-06-01T09:36:35.157Z,58.25
2023-06-01T09:37:35.135Z,56.54
2023-06-01T09:38:35.131Z,58.62
2023-06-01T09:39:35.440Z,58.47
2023-06-01T09:40:35.099Z,54.25
2023-06-01T09:41:35.096Z,56.34
2023-06-01T09:42:35.074Z,55.40
2023-06-01T09:43:35.076Z,53.12
2023-06-01T09:44:35.552Z,55.76
2023-06-01T09:45:35.063Z,54.96
2023-06-01T09:46:35.048Z,53.88
2023-06-01T09:47:35.149Z,56.11
2023-06-01T09:48:35.383Z,57.24
2023-06-01T09:49:35.366Z,57.15
2023-06-01T09:50:34.999Z,57.35
2023-06-01T09:51:34.990Z,57.52
2023-06-01T09:52:34.964Z,58.20
2023-06-01T09:53:35.666Z,55.00
2023-06-01T09:54:34.955Z,56.84
2023-06-01T09:55:34.948Z,56.14
2023-06-01T09:56:34.923Z,57.48
2023-06-01T09:57:34.913Z,57.62
2023-06-01T09:58:34.919Z,56.31
2023-06-01T09:59:34.904Z,57.32
2023-06-01T10:00:34.886Z,58.90
2023-06-01T10:01:34.999Z,57.50
2023-06-01T10:02:35.702Z,57.90
2023-06-01T10:03:35.457Z,57.67
2023-06-01T10:04:34.854Z,55.33
2023-06-01T10:05:34.834Z,56.23
2023-06-01T10:06:34.823Z,55.53
2023-06-01T10:07:35.157Z,56.46
2023-06-01T10:08:34.812Z,58.20
2023-06-01T10:09:34.798Z,59.30
2023-06-01T10:10:34.779Z,56.46
2023-06-01T10:11:34.777Z,55.63
2023-06-01T10:12:35.200Z,56.84
2023-06-01T10:13:34.754Z,57.97
2023-06-01T10:14:34.747Z,57.14
2023-06-01T10:15:34.743Z,56.03
2023-06-01T10:16:35.064Z,57.04
2023-06-01T10:17:35.735Z,59.34
2023-06-01T10:18:34.699Z,57.04
2023-06-01T10:19:34.692Z,55.08
2023-06-01T10:20:34.679Z,58.12
2023-06-01T10:21:35.501Z,57.82
2023-06-01T10:22:34.661Z,58.33
2023-06-01T10:23:34.654Z,58.02
2023-06-01T10:24:34.636Z,62.82
2023-06-01T10:25:34.982Z,57.17
2023-06-01T10:26:35.174Z,58.17
2023-06-01T10:27:34.637Z,57.06
2023-06-01T10:28:34.624Z,56.46
2023-06-01T10:29:34.588Z,57.94
2023-06-01T10:30:34.925Z,57.61
2023-06-01T10:31:34.954Z,58.79
2023-06-01T10:32:34.589Z,54.97
2023-06-01T10:33:34.566Z,56.45
2023-06-01T10:34:34.575Z,55.32
2023-06-01T10:35:35.257Z,57.20
2023-06-01T10:36:34.516Z,55.22
2023-06-01T10:37:34.511Z,55.02
2023-06-01T10:38:34.497Z,54.52
2023-06-01T10:39:36.085Z,56.65
2023-06-01T10:40:34.792Z,55.75
2023-06-01T10:41:34.505Z,56.18
2023-06-01T10:42:34.455Z,57.31
2023-06-01T10:43:34.448Z,57.04
2023-06-01T10:44:35.206Z,60.35
2023-06-01T10:45:34.435Z,59.72
2023-06-01T10:46:34.470Z,55.88
2023-06-01T10:47:34.402Z,56.21
2023-06-01T10:48:34.396Z,57.79
2023-06-01T10:49:34.898Z,57.18
2023-06-01T10:50:34.379Z,56.43
2023-06-01T10:51:34.352Z,58.44
2023-06-01T10:52:34.434Z,58.34
2023-06-01T10:53:34.359Z,59.52
2023-06-01T10:54:34.738Z,59.82
2023-06-01T10:55:34.308Z,58.18
2023-06-01T10:56:34.321Z,55.98
2023-06-01T10:57:34.308Z,59.86
2023-06-01T10:58:34.317Z,57.89
2023-06-01T10:59:34.277Z,58.76
2023-06-01T11:00:34.295Z,57.83
2023-06-01T11:01:34.306Z,56.23
2023-06-01T11:02:34.292Z,58.06
2023-06-01T11:03:34.379Z,58.86
2023-06-01T11:04:34.331Z,56.76
2023-06-01T11:05:34.226Z,58.29
2023-06-01T11:06:34.209Z,57.86
2023-06-01T11:07:34.487Z,59.59
2023-06-01T11:08:34.554Z,57.48
2023-06-01T11:09:34.175Z,59.32
2023-06-01T11:10:34.166Z,61.13
2023-06-01T11:11:34.157Z,58.49
2023-06-01T11:12:34.466Z,57.61
2023-06-01T11:13:34.135Z,58.81
2023-06-01T11:14:34.151Z,59.55
2023-06-01T11:15:34.128Z,58.84
2023-06-01T11:16:34.230Z,58.64
2023-06-01T11:17:34.630Z,59.65
2023-06-01T11:18:34.084Z,60.35
2023-06-01T11:19:34.064Z,60.25
2023-06-01T11:20:34.076Z,60.18
2023-06-01T11:21:34.891Z,60.38
2023-06-01T11:22:34.358Z,60.85
2023-06-01T11:23:34.026Z,61.76
2023-06-01T11:24:34.031Z,63.23
2023-06-01T11:25:34.016Z,59.82
2023-06-01T11:26:34.034Z,58.92
2023-06-01T11:27:33.994Z,58.92
2023-06-01T11:28:33.991Z,59.29
2023-06-01T11:29:33.972Z,59.72
2023-06-01T11:30:33.957Z,61.30
2023-06-01T11:31:34.335Z,59.92
2023-06-01T11:32:34.030Z,60.29
2023-06-01T11:33:34.757Z,59.52
2023-06-01T11:34:33.917Z,60.22
2023-06-01T11:35:34.418Z,60.42
2023-06-01T11:36:33.911Z,59.52
2023-06-01T11:37:33.883Z,59.12
2023-06-01T11:38:33.877Z,62.20
2023-06-01T11:39:33.886Z,59.36
2023-06-01T11:40:38.296Z,56.83
2023-06-01T11:41:33.846Z,59.83
2023-06-01T11:42:33.834Z,59.77
2023-06-01T11:43:33.825Z,57.76
2023-06-01T11:44:33.819Z,59.06
2023-06-01T11:45:34.120Z,59.23
2023-06-01T11:46:33.838Z,58.33
2023-06-01T11:47:33.816Z,57.93
2023-06-01T11:48:33.767Z,57.33
2023-06-01T11:49:33.763Z,59.26
2023-06-01T11:50:34.063Z,57.15
2023-06-01T11:51:33.741Z,58.39
2023-06-01T11:52:33.723Z,60.60
2023-06-01T11:53:33.710Z,60.66
2023-06-01T11:54:34.046Z,59.06
2023-06-01T11:55:33.691Z,57.26
2023-06-01T11:56:33.690Z,58.36
2023-06-01T11:57:33.686Z,58.79
2023-06-01T11:58:33.681Z,58.59
2023-06-01T11:59:33.990Z,58.69
2023-06-01T12:00:33.647Z,60.80
2023-06-01T12:01:33.631Z,59.99
2023-06-01T12:02:33.659Z,60.97
2023-06-01T12:03:34.049Z,61.44
2023-06-01T12:04:34.016Z,59.74
2023-06-01T12:05:33.588Z,58.50
2023-06-01T12:06:33.590Z,59.20
2023-06-01T12:07:33.576Z,56.80
2023-06-01T12:08:33.982Z,60.08
2023-06-01T12:09:33.550Z,55.98
2023-06-01T12:10:33.548Z,59.35
2023-06-01T12:11:33.529Z,56.90
2023-06-01T12:12:33.531Z,59.53
2023-06-01T12:13:33.970Z,57.86
2023-06-01T12:14:33.542Z,57.98
2023-06-01T12:15:33.509Z,59.49
2023-06-01T12:16:33.575Z,60.19
2023-06-01T12:17:33.999Z,59.96
2023-06-01T12:18:33.885Z,59.03
2023-06-01T12:19:33.504Z,57.60
2023-06-01T12:20:33.460Z,58.03
2023-06-01T12:21:33.482Z,58.53
2023-06-01T12:22:33.764Z,57.23
2023-06-01T12:23:33.424Z,57.15
2023-06-01T12:24:33.404Z,58.66
2023-06-01T12:25:33.404Z,59.46
2023-06-01T12:26:33.400Z,58.73
2023-06-01T12:27:33.740Z,58.23
2023-06-01T12:28:33.377Z,57.10
2023-06-01T12:29:33.353Z,57.63
2023-06-01T12:30:33.356Z,58.43
2023-06-01T12:31:33.787Z,57.86
2023-06-01T12:32:33.712Z,57.73
2023-06-01T12:33:33.310Z,58.03
2023-06-01T12:34:33.312Z,58.20
2023-06-01T12:35:33.295Z,58.00
2023-06-01T12:36:33.968Z,57.30
2023-06-01T12:37:33.281Z,58.13
2023-06-01T12:38:33.274Z,56.73
2023-06-01T12:39:33.250Z,57.30
2023-06-01T12:40:33.771Z,57.70
2023-06-01T12:41:33.601Z,57.60
2023-06-01T12:42:33.227Z,59.28
2023-06-01T12:43:33.206Z,57.17
2023-06-01T12:44:33.200Z,56.45
2023-06-01T12:45:33.536Z,57.45
2023-06-01T12:46:33.263Z,56.35
2023-06-01T12:47:33.223Z,56.98
2023-06-01T12:48:33.178Z,57.57
2023-06-01T12:49:33.159Z,55.77
2023-06-01T12:50:33.142Z,59.08
2023-06-01T12:51:33.127Z,56.24
2023-06-01T12:52:33.162Z,57.65
2023-06-01T12:53:33.182Z,55.98